sensor_id;sensor_type;location;lat;lon;timestamp;pressure;altitude;pressure_sealevel;temperature;humidity
60974;BME280;46846;51.528;5.076;2023-01-27T00:01:39;101956.47;;;2.26;81.40
60974;BME280;46846;51.528;5.076;2023-01-27T00:04:04;101959.91;;;2.22;81.76
60974;BME280;46846;51.528;5.076;2023-01-27T00:06:30;101948.88;;;2.42;81.52
60974;BME280;46846;51.528;5.076;2023-01-27T00:08:55;101946.44;;;2.54;81.35
60974;BME280;46846;51.528;5.076;2023-01-27T00:11:20;101951.69;;;2.54;81.42
60974;BME280;46846;51.528;5.076;2023-01-27T00:14:04;101945.59;;;2.55;81.12
60974;BME280;46846;51.528;5.076;2023-01-27T00:16:30;101949.22;;;2.62;81.20
60974;BME280;46846;51.528;5.076;2023-01-27T00:18:55;101948.13;;;2.49;80.94
60974;BME280;46846;51.528;5.076;2023-01-27T00:21:20;101949.25;;;2.64;81.23
60974;BME280;46846;51.528;5.076;2023-01-27T00:24:04;101951.88;;;2.64;80.94
60974;BME280;46846;51.528;5.076;2023-01-27T00:26:48;101950.09;;;2.63;81.18
60974;BME280;46846;51.528;5.076;2023-01-27T00:29:14;101941.25;;;2.57;80.90
60974;BME280;46846;51.528;5.076;2023-01-27T00:31:39;101951.91;;;2.67;80.85
60974;BME280;46846;51.528;5.076;2023-01-27T00:34:23;101951.91;;;2.67;80.75
60974;BME280;46846;51.528;5.076;2023-01-27T00:36:48;101951.88;;;2.64;80.08
60974;BME280;46846;51.528;5.076;2023-01-27T00:39:14;101948.91;;;2.43;81.12
60974;BME280;46846;51.528;5.076;2023-01-27T00:41:39;101957.78;;;2.50;80.82
60974;BME280;46846;51.528;5.076;2023-01-27T00:44:05;101955.34;;;2.63;80.60
60974;BME280;46846;51.528;5.076;2023-01-27T00:46:31;101961.34;;;2.54;80.75
60974;BME280;46846;51.528;5.076;2023-01-27T00:48:57;101957.59;;;2.39;80.75
60974;BME280;46846;51.528;5.076;2023-01-27T00:51:22;101960.53;;;2.59;80.58
60974;BME280;46846;51.528;5.076;2023-01-27T00:53:48;101958.72;;;2.54;80.81
60974;BME280;46846;51.528;5.076;2023-01-27T00:56:13;101955.03;;;2.44;80.94
60974;BME280;46846;51.528;5.076;2023-01-27T00:58:39;101954.25;;;2.50;80.77
60974;BME280;46846;51.528;5.076;2023-01-27T01:01:07;101956.16;;;2.58;79.94
60974;BME280;46846;51.528;5.076;2023-01-27T01:03:34;101956.94;;;2.53;80.70
60974;BME280;46846;51.528;5.076;2023-01-27T01:06:01;101955.38;;;2.64;80.40
60974;BME280;46846;51.528;5.076;2023-01-27T01:08:29;101953.53;;;2.58;80.51
60974;BME280;46846;51.528;5.076;2023-01-27T01:10:55;101954.50;;;2.64;79.92
60974;BME280;46846;51.528;5.076;2023-01-27T01:13:20;101955.28;;;2.59;80.33
60974;BME280;46846;51.528;5.076;2023-01-27T01:15:46;101956.19;;;2.62;80.31
60974;BME280;46846;51.528;5.076;2023-01-27T01:18:14;101969.19;;;2.52;80.33
60974;BME280;46846;51.528;5.076;2023-01-27T01:20:44;101963.13;;;2.56;80.01
60974;BME280;46846;51.528;5.076;2023-01-27T01:23:10;101964.94;;;2.60;80.00
60974;BME280;46846;51.528;5.076;2023-01-27T01:25:35;101965.75;;;2.56;80.37
60974;BME280;46846;51.528;5.076;2023-01-27T01:28:02;101965.44;;;2.38;80.72
60974;BME280;46846;51.528;5.076;2023-01-27T01:30:28;101964.78;;;2.51;80.65
60974;BME280;46846;51.528;5.076;2023-01-27T01:32:54;101963.59;;;2.32;80.71
60974;BME280;46846;51.528;5.076;2023-01-27T01:35:21;101961.94;;;2.37;80.97
60974;BME280;46846;51.528;5.076;2023-01-27T01:37:47;101970.94;;;2.53;79.60
60974;BME280;46846;51.528;5.076;2023-01-27T01:40:12;101973.19;;;2.30;80.65
60974;BME280;46846;51.528;5.076;2023-01-27T01:42:59;101974.25;;;2.40;80.24
60974;BME280;46846;51.528;5.076;2023-01-27T01:50:51;101975.00;;;2.34;80.48
60974;BME280;46846;51.528;5.076;2023-01-27T01:53:17;101976.28;;;2.09;81.78
60974;BME280;46846;51.528;5.076;2023-01-27T01:55:44;101976.41;;;2.15;81.28
60974;BME280;46846;51.528;5.076;2023-01-27T01:58:11;101977.50;;;2.26;80.78
60974;BME280;46846;51.528;5.076;2023-01-27T02:00:37;101975.84;;;2.33;80.70
60974;BME280;46846;51.528;5.076;2023-01-27T02:03:03;101976.75;;;2.34;80.54
60974;BME280;46846;51.528;5.076;2023-01-27T02:05:31;101975.81;;;2.31;80.64
60974;BME280;46846;51.528;5.076;2023-01-27T02:08:15;101964.63;;;2.42;80.38
60974;BME280;46846;51.528;5.076;2023-01-27T02:10:42;101973.19;;;2.30;80.96
60974;BME280;46846;51.528;5.076;2023-01-27T02:13:07;101969.84;;;2.40;80.47
60974;BME280;46846;51.528;5.076;2023-01-27T02:15:33;101969.81;;;2.37;80.72
60974;BME280;46846;51.528;5.076;2023-01-27T02:17:59;101966.31;;;2.38;80.82
60974;BME280;46846;51.528;5.076;2023-01-27T02:20:46;101971.69;;;2.44;80.40
60974;BME280;46846;51.528;5.076;2023-01-27T02:28:12;101990.16;;;2.51;80.03
60974;BME280;46846;51.528;5.076;2023-01-27T02:30:38;101991.97;;;2.53;79.99
60974;BME280;46846;51.528;5.076;2023-01-27T02:33:09;101979.50;;;2.41;80.64
60974;BME280;46846;51.528;5.076;2023-01-27T02:35:40;101995.41;;;2.49;79.74
60974;BME280;46846;51.528;5.076;2023-01-27T02:38:07;101990.94;;;2.43;79.87
60974;BME280;46846;51.528;5.076;2023-01-27T02:40:36;101991.00;;;2.46;79.83
60974;BME280;46846;51.528;5.076;2023-01-27T02:43:03;101989.94;;;2.37;80.62
60974;BME280;46846;51.528;5.076;2023-01-27T02:45:29;101998.78;;;2.42;80.15
60974;BME280;46846;51.528;5.076;2023-01-27T02:47:55;102001.25;;;2.34;80.34
60974;BME280;46846;51.528;5.076;2023-01-27T02:50:20;101992.50;;;2.34;80.27
60974;BME280;46846;51.528;5.076;2023-01-27T02:52:45;101998.78;;;2.42;80.07
60974;BME280;46846;51.528;5.076;2023-01-27T02:55:11;101997.53;;;2.21;80.91
60974;BME280;46846;51.528;5.076;2023-01-27T02:57:36;101986.25;;;2.25;80.28
60974;BME280;46846;51.528;5.076;2023-01-27T03:00:02;101993.22;;;2.25;81.14
60974;BME280;46846;51.528;5.076;2023-01-27T03:02:28;101992.56;;;2.37;79.46
60974;BME280;46846;51.528;5.076;2023-01-27T03:04:58;101991.50;;;2.25;80.77
60974;BME280;46846;51.528;5.076;2023-01-27T03:07:24;101992.63;;;2.40;79.80
60974;BME280;46846;51.528;5.076;2023-01-27T03:09:50;101994.72;;;2.12;81.37
60974;BME280;46846;51.528;5.076;2023-01-27T03:12:15;101993.94;;;2.17;80.81
60974;BME280;46846;51.528;5.076;2023-01-27T03:14:47;102000.03;;;2.15;80.77
60974;BME280;46846;51.528;5.076;2023-01-27T03:17:32;102003.63;;;2.20;80.57
60974;BME280;46846;51.528;5.076;2023-01-27T03:20:16;102008.94;;;2.22;80.51
60974;BME280;46846;51.528;5.076;2023-01-27T03:22:41;102016.06;;;2.30;80.43
60974;BME280;46846;51.528;5.076;2023-01-27T03:25:07;102015.94;;;2.24;79.97
60974;BME280;46846;51.528;5.076;2023-01-27T03:27:33;102012.59;;;2.31;80.01
60974;BME280;46846;51.528;5.076;2023-01-27T03:29:59;102007.44;;;2.38;79.36
60974;BME280;46846;51.528;5.076;2023-01-27T03:32:26;102006.63;;;2.40;79.76
60974;BME280;46846;51.528;5.076;2023-01-27T03:34:52;102013.66;;;2.40;79.82
60974;BME280;46846;51.528;5.076;2023-01-27T03:37:22;102020.59;;;2.38;79.78
60974;BME280;46846;51.528;5.076;2023-01-27T03:40:07;102026.56;;;2.29;79.82
60974;BME280;46846;51.528;5.076;2023-01-27T03:42:52;102023.78;;;2.21;80.52
60974;BME280;46846;51.528;5.076;2023-01-27T03:45:36;102034.47;;;2.29;80.20
60974;BME280;46846;51.528;5.076;2023-01-27T03:48:20;102036.19;;;2.28;80.75
60974;BME280;46846;51.528;5.076;2023-01-27T03:50:46;102029.19;;;2.29;80.15
60974;BME280;46846;51.528;5.076;2023-01-27T03:53:21;102032.84;;;2.37;79.95
60974;BME280;46846;51.528;5.076;2023-01-27T03:55:46;102033.72;;;2.38;80.30
60974;BME280;46846;51.528;5.076;2023-01-27T03:58:33;102036.50;;;2.45;79.44
60974;BME280;46846;51.528;5.076;2023-01-27T04:03:27;102040.00;;;2.46;79.60
60974;BME280;46846;51.528;5.076;2023-01-27T04:06:18;102033.72;;;2.38;80.13
60974;BME280;46846;51.528;5.076;2023-01-27T04:09:04;102034.59;;;2.37;79.96
60974;BME280;46846;51.528;5.076;2023-01-27T04:11:30;102032.97;;;2.45;79.36
60974;BME280;46846;51.528;5.076;2023-01-27T04:14:14;102028.53;;;2.41;79.64
60974;BME280;46846;51.528;5.076;2023-01-27T04:16:40;102032.97;;;2.45;79.50
60974;BME280;46846;51.528;5.076;2023-01-27T04:19:07;102035.41;;;2.34;79.52
60974;BME280;46846;51.528;5.076;2023-01-27T04:21:33;102029.41;;;2.41;79.41
60974;BME280;46846;51.528;5.076;2023-01-27T04:23:59;102031.19;;;2.42;79.42
60974;BME280;46846;51.528;5.076;2023-01-27T04:26:26;102031.84;;;2.30;80.11
60974;BME280;46846;51.528;5.076;2023-01-27T04:29:02;102030.03;;;2.28;79.76
60974;BME280;46846;51.528;5.076;2023-01-27T04:31:27;102035.28;;;2.26;80.12
60974;BME280;46846;51.528;5.076;2023-01-27T04:33:53;102030.03;;;2.28;80.50
60974;BME280;46846;51.528;5.076;2023-01-27T04:36:18;102045.91;;;2.32;79.83
60974;BME280;46846;51.528;5.076;2023-01-27T04:38:44;102043.28;;;2.34;79.80
60974;BME280;46846;51.528;5.076;2023-01-27T04:41:09;102032.78;;;2.34;80.09
60974;BME280;46846;51.528;5.076;2023-01-27T04:43:35;102032.78;;;2.32;80.02
60974;BME280;46846;51.528;5.076;2023-01-27T04:46:00;102044.31;;;2.41;79.71
60974;BME280;46846;51.528;5.076;2023-01-27T04:48:25;102046.84;;;2.38;79.85
60974;BME280;46846;51.528;5.076;2023-01-27T04:50:51;102056.34;;;2.29;80.21
60974;BME280;46846;51.528;5.076;2023-01-27T04:53:16;102058.91;;;2.28;80.10
60974;BME280;46846;51.528;5.076;2023-01-27T04:55:47;102067.41;;;2.13;80.58
60974;BME280;46846;51.528;5.076;2023-01-27T04:58:15;102061.50;;;2.25;80.58
60974;BME280;46846;51.528;5.076;2023-01-27T05:00:42;102069.34;;;2.23;80.43
60974;BME280;46846;51.528;5.076;2023-01-27T05:03:08;102063.19;;;2.21;80.45
60974;BME280;46846;51.528;5.076;2023-01-27T05:05:34;102071.66;;;2.06;81.02
60974;BME280;46846;51.528;5.076;2023-01-27T05:08:04;102064.72;;;2.10;80.65
60974;BME280;46846;51.528;5.076;2023-01-27T05:10:30;102076.34;;;2.24;80.40
60974;BME280;46846;51.528;5.076;2023-01-27T05:12:55;102072.03;;;2.26;80.10
60974;BME280;46846;51.528;5.076;2023-01-27T05:15:21;102083.97;;;2.10;80.76
60974;BME280;46846;51.528;5.076;2023-01-27T05:17:46;102074.19;;;2.03;81.17
60974;BME280;46846;51.528;5.076;2023-01-27T05:20:11;102092.53;;;2.01;81.18
60974;BME280;46846;51.528;5.076;2023-01-27T05:22:37;102085.78;;;2.13;80.69
60974;BME280;46846;51.528;5.076;2023-01-27T05:25:03;102082.28;;;2.14;80.55
60974;BME280;46846;51.528;5.076;2023-01-27T05:27:28;102073.78;;;2.26;80.13
60974;BME280;46846;51.528;5.076;2023-01-27T05:29:53;102082.88;;;2.00;81.01
60974;BME280;46846;51.528;5.076;2023-01-27T05:32:19;102082.56;;;2.26;80.21
60974;BME280;46846;51.528;5.076;2023-01-27T05:34:44;102091.50;;;2.38;79.56
60974;BME280;46846;51.528;5.076;2023-01-27T05:37:09;102075.75;;;2.36;79.73
60974;BME280;46846;51.528;5.076;2023-01-27T05:39:35;102083.72;;;2.42;79.37
60974;BME280;46846;51.528;5.076;2023-01-27T05:42:00;102094.00;;;2.31;79.46
60974;BME280;46846;51.528;5.076;2023-01-27T05:44:25;102089.66;;;2.32;79.53
60974;BME280;46846;51.528;5.076;2023-01-27T05:46:51;102088.97;;;2.42;79.12
60974;BME280;46846;51.528;5.076;2023-01-27T05:49:16;102091.34;;;2.28;79.46
60974;BME280;46846;51.528;5.076;2023-01-27T05:51:41;102085.31;;;2.34;79.66
60974;BME280;46846;51.528;5.076;2023-01-27T05:54:07;102092.53;;;2.44;78.88
60974;BME280;46846;51.528;5.076;2023-01-27T05:56:33;102091.72;;;2.47;78.69
60974;BME280;46846;51.528;5.076;2023-01-27T05:58:59;102093.53;;;2.51;78.63
60974;BME280;46846;51.528;5.076;2023-01-27T06:01:29;102096.19;;;2.53;78.44
60974;BME280;46846;51.528;5.076;2023-01-27T06:03:56;102090.66;;;2.37;78.94
60974;BME280;46846;51.528;5.076;2023-01-27T06:06:22;102098.75;;;2.48;78.70
60974;BME280;46846;51.528;5.076;2023-01-27T06:08:48;102101.28;;;2.45;78.94
60974;BME280;46846;51.528;5.076;2023-01-27T06:11:14;102096.91;;;2.44;78.45
60974;BME280;46846;51.528;5.076;2023-01-27T06:13:40;102094.94;;;2.34;78.53
60974;BME280;46846;51.528;5.076;2023-01-27T06:16:11;102098.66;;;2.45;78.05
60974;BME280;46846;51.528;5.076;2023-01-27T06:18:37;102110.97;;;2.48;78.32
60974;BME280;46846;51.528;5.076;2023-01-27T06:21:07;102117.91;;;2.44;78.38
60974;BME280;46846;51.528;5.076;2023-01-27T06:23:33;102122.38;;;2.48;78.14
60974;BME280;46846;51.528;5.076;2023-01-27T06:26:03;102119.72;;;2.46;78.70
60974;BME280;46846;51.528;5.076;2023-01-27T06:28:30;102124.06;;;2.44;79.04
60974;BME280;46846;51.528;5.076;2023-01-27T06:31:06;102126.84;;;2.52;78.61
60974;BME280;46846;51.528;5.076;2023-01-27T06:33:32;102132.16;;;2.55;78.78
60974;BME280;46846;51.528;5.076;2023-01-27T06:36:02;102127.72;;;2.53;78.10
60974;BME280;46846;51.528;5.076;2023-01-27T06:38:28;102129.53;;;2.57;78.27
60974;BME280;46846;51.528;5.076;2023-01-27T06:40:53;102121.66;;;2.57;77.58
60974;BME280;46846;51.528;5.076;2023-01-27T06:43:18;102123.28;;;2.50;78.04
60974;BME280;46846;51.528;5.076;2023-01-27T06:45:50;102139.00;;;2.47;78.17
60974;BME280;46846;51.528;5.076;2023-01-27T06:48:16;102125.94;;;2.50;78.22
60974;BME280;46846;51.528;5.076;2023-01-27T06:50:41;102138.28;;;2.56;77.79
60974;BME280;46846;51.528;5.076;2023-01-27T06:53:07;102133.91;;;2.55;78.42
60974;BME280;46846;51.528;5.076;2023-01-27T06:55:33;102132.03;;;2.51;78.21
60974;BME280;46846;51.528;5.076;2023-01-27T06:58:02;102141.59;;;2.45;78.52
60974;BME280;46846;51.528;5.076;2023-01-27T07:00:28;102144.28;;;2.47;77.99
60974;BME280;46846;51.528;5.076;2023-01-27T07:02:54;102133.81;;;2.50;78.06
60974;BME280;46846;51.528;5.076;2023-01-27T07:05:20;102144.13;;;2.41;78.76
60974;BME280;46846;51.528;5.076;2023-01-27T07:07:45;102146.03;;;2.50;78.34
60974;BME280;46846;51.528;5.076;2023-01-27T07:10:11;102147.94;;;2.55;77.64
60974;BME280;46846;51.528;5.076;2023-01-27T07:12:36;102146.81;;;2.44;78.69
60974;BME280;46846;51.528;5.076;2023-01-27T07:15:07;102143.19;;;2.39;78.36
60974;BME280;46846;51.528;5.076;2023-01-27T07:17:33;102142.50;;;2.48;78.00
60974;BME280;46846;51.528;5.076;2023-01-27T07:19:58;102137.94;;;2.37;78.61
60974;BME280;46846;51.528;5.076;2023-01-27T07:22:24;102140.78;;;2.48;77.88
60974;BME280;46846;51.528;5.076;2023-01-27T07:24:49;102145.19;;;2.51;77.62
60974;BME280;46846;51.528;5.076;2023-01-27T07:27:15;102149.53;;;2.47;78.44
60974;BME280;46846;51.528;5.076;2023-01-27T07:29:40;102142.50;;;2.48;78.30
60974;BME280;46846;51.528;5.076;2023-01-27T07:32:06;102153.09;;;2.52;78.22
60974;BME280;46846;51.528;5.076;2023-01-27T07:34:31;102147.00;;;2.53;78.10
60974;BME280;46846;51.528;5.076;2023-01-27T07:36:56;102147.94;;;2.55;77.47
60974;BME280;46846;51.528;5.076;2023-01-27T07:39:22;102151.34;;;2.51;78.11
60974;BME280;46846;51.528;5.076;2023-01-27T07:41:48;102145.81;;;2.37;78.61
60974;BME280;46846;51.528;5.076;2023-01-27T07:44:13;102152.06;;;2.44;78.44
60974;BME280;46846;51.528;5.076;2023-01-27T07:46:39;102158.31;;;2.49;77.99
60974;BME280;46846;51.528;5.076;2023-01-27T07:49:04;102151.03;;;2.36;78.92
60974;BME280;46846;51.528;5.076;2023-01-27T07:51:30;102158.72;;;2.26;78.67
60974;BME280;46846;51.528;5.076;2023-01-27T07:53:55;102158.03;;;2.37;78.94
60974;BME280;46846;51.528;5.076;2023-01-27T07:56:20;102150.31;;;2.43;78.15
60974;BME280;46846;51.528;5.076;2023-01-27T07:58:46;102155.38;;;2.34;78.61
60974;BME280;46846;51.528;5.076;2023-01-27T08:01:11;102152.06;;;2.44;77.61
60974;BME280;46846;51.528;5.076;2023-01-27T08:03:37;102146.84;;;2.45;77.88
60974;BME280;46846;51.528;5.076;2023-01-27T08:06:10;102151.06;;;2.39;78.20
60974;BME280;46846;51.528;5.076;2023-01-27T08:08:36;102153.47;;;2.26;78.86
60974;BME280;46846;51.528;5.076;2023-01-27T08:11:04;102155.41;;;2.37;77.91
60974;BME280;46846;51.528;5.076;2023-01-27T08:13:32;102152.97;;;2.46;76.56
60974;BME280;46846;51.528;5.076;2023-01-27T08:15:59;102160.94;;;2.51;77.34
60974;BME280;46846;51.528;5.076;2023-01-27T08:18:25;102151.34;;;2.51;76.10
60974;BME280;46846;51.528;5.076;2023-01-27T08:20:53;102156.63;;;2.53;76.95
60974;BME280;46846;51.528;5.076;2023-01-27T08:23:20;102154.31;;;2.25;78.35
60974;BME280;46846;51.528;5.076;2023-01-27T08:25:54;102158.00;;;2.34;78.05
60974;BME280;46846;51.528;5.076;2023-01-27T08:28:21;102164.34;;;2.43;77.16
60974;BME280;46846;51.528;5.076;2023-01-27T08:30:47;102164.34;;;2.45;77.48
60974;BME280;46846;51.528;5.076;2023-01-27T08:33:15;102162.72;;;2.50;77.09
60974;BME280;46846;51.528;5.076;2023-01-27T08:35:40;102173.91;;;2.40;77.21
60974;BME280;46846;51.528;5.076;2023-01-27T08:38:11;102173.91;;;2.41;77.63
60974;BME280;46846;51.528;5.076;2023-01-27T08:40:38;102166.97;;;2.43;77.28
60974;BME280;46846;51.528;5.076;2023-01-27T08:43:05;102181.16;;;2.53;77.05
60974;BME280;46846;51.528;5.076;2023-01-27T08:45:30;102178.53;;;2.53;77.27
60974;BME280;46846;51.528;5.076;2023-01-27T08:47:56;102182.59;;;2.37;78.09
60974;BME280;46846;51.528;5.076;2023-01-27T08:50:21;102182.69;;;2.42;77.39
60974;BME280;46846;51.528;5.076;2023-01-27T08:52:47;102186.34;;;2.50;76.80
60974;BME280;46846;51.528;5.076;2023-01-27T08:55:12;102188.94;;;2.49;76.93
60974;BME280;46846;51.528;5.076;2023-01-27T08:57:37;102198.59;;;2.48;77.13
60974;BME280;46846;51.528;5.076;2023-01-27T09:00:05;102208.19;;;2.48;77.25
60974;BME280;46846;51.528;5.076;2023-01-27T09:02:31;102211.78;;;2.51;77.71
60974;BME280;46846;51.528;5.076;2023-01-27T09:04:57;102217.69;;;2.41;77.65
60974;BME280;46846;51.528;5.076;2023-01-27T09:07:22;102222.09;;;2.42;77.78
60974;BME280;46846;51.528;5.076;2023-01-27T09:09:48;102223.09;;;2.47;77.37
60974;BME280;46846;51.528;5.076;2023-01-27T09:12:14;102219.41;;;2.40;77.27
60974;BME280;46846;51.528;5.076;2023-01-27T09:14:39;102217.78;;;2.45;77.53
60974;BME280;46846;51.528;5.076;2023-01-27T09:17:05;102207.88;;;2.32;78.00
60974;BME280;46846;51.528;5.076;2023-01-27T09:19:30;102215.09;;;2.42;77.57
60974;BME280;46846;51.528;5.076;2023-01-27T09:21:56;102218.66;;;2.44;77.29
60974;BME280;46846;51.528;5.076;2023-01-27T09:24:22;102222.53;;;2.22;77.70
60974;BME280;46846;51.528;5.076;2023-01-27T09:26:47;102217.66;;;2.39;77.34
60974;BME280;46846;51.528;5.076;2023-01-27T09:29:13;102218.22;;;2.26;78.71
60974;BME280;46846;51.528;5.076;2023-01-27T09:31:38;102231.69;;;2.41;77.07
60974;BME280;46846;51.528;5.076;2023-01-27T09:34:03;102229.88;;;2.39;77.98
60974;BME280;46846;51.528;5.076;2023-01-27T09:36:30;102234.38;;;2.43;77.52
60974;BME280;46846;51.528;5.076;2023-01-27T09:39:01;102238.72;;;2.41;77.76
60974;BME280;46846;51.528;5.076;2023-01-27T09:47:16;102227.25;;;2.39;77.51
60974;BME280;46846;51.528;5.076;2023-01-27T09:52:56;102229.16;;;2.46;77.10
60974;BME280;46846;51.528;5.076;2023-01-27T09:55:48;102224.53;;;2.32;77.88
60974;BME280;46846;51.528;5.076;2023-01-27T10:01:13;102240.28;;;2.34;77.21
60974;BME280;46846;51.528;5.076;2023-01-27T10:06:45;102251.50;;;2.25;78.23
60974;BME280;46846;51.528;5.076;2023-01-27T10:12:25;102246.00;;;2.14;78.86
60974;BME280;46846;51.528;5.076;2023-01-27T10:20:50;102247.06;;;2.23;77.65
60974;BME280;46846;51.528;5.076;2023-01-27T10:29:08;102242.00;;;2.32;78.19
60974;BME280;46846;51.528;5.076;2023-01-27T10:31:44;102236.03;;;2.39;77.98
60974;BME280;46846;51.528;5.076;2023-01-27T10:34:23;102244.59;;;2.30;78.16
60974;BME280;46846;51.528;5.076;2023-01-27T10:42:27;102240.03;;;2.22;78.43
60974;BME280;46846;51.528;5.076;2023-01-27T10:53:56;102233.69;;;2.13;78.63
60974;BME280;46846;51.528;5.076;2023-01-27T10:56:44;102233.94;;;2.24;78.13
60974;BME280;46846;51.528;5.076;2023-01-27T10:59:36;102226.28;;;2.34;78.00
60974;BME280;46846;51.528;5.076;2023-01-27T11:04:39;102233.84;;;2.18;79.15
60974;BME280;46846;51.528;5.076;2023-01-27T11:07:13;102226.78;;;2.17;79.35
60974;BME280;46846;51.528;5.076;2023-01-27T11:09:47;102229.34;;;2.14;79.41
60974;BME280;46846;51.528;5.076;2023-01-27T11:12:14;102229.72;;;2.31;78.20
60974;BME280;46846;51.528;5.076;2023-01-27T11:14:43;102223.28;;;2.16;79.24
60974;BME280;46846;51.528;5.076;2023-01-27T11:17:31;102238.22;;;2.19;79.33
60974;BME280;46846;51.528;5.076;2023-01-27T11:20:15;102228.72;;;2.26;77.96
60974;BME280;46846;51.528;5.076;2023-01-27T11:23:14;102228.97;;;2.37;77.66
60974;BME280;46846;51.528;5.076;2023-01-27T11:26:03;102222.94;;;2.41;77.44
60974;BME280;46846;51.528;5.076;2023-01-27T11:29:08;102224.28;;;2.23;78.96
60974;BME280;46846;51.528;5.076;2023-01-27T11:31:36;102218.31;;;2.29;78.13
60974;BME280;46846;51.528;5.076;2023-01-27T11:36:30;102226.16;;;2.27;78.96
60974;BME280;46846;51.528;5.076;2023-01-27T11:38:56;102230.25;;;2.14;79.92
60974;BME280;46846;51.528;5.076;2023-01-27T11:41:27;102226.22;;;2.30;78.72
60974;BME280;46846;51.528;5.076;2023-01-27T11:43:53;102225.56;;;2.41;78.12
60974;BME280;46846;51.528;5.076;2023-01-27T11:46:21;102225.72;;;2.49;77.32
60974;BME280;46846;51.528;5.076;2023-01-27T11:48:53;102215.34;;;2.55;77.41
60974;BME280;46846;51.528;5.076;2023-01-27T11:51:24;102223.28;;;2.56;77.23
60974;BME280;46846;51.528;5.076;2023-01-27T11:54:05;102228.31;;;2.45;78.21
60974;BME280;46846;51.528;5.076;2023-01-27T11:56:35;102218.69;;;2.48;78.08
60974;BME280;46846;51.528;5.076;2023-01-27T11:59:08;102214.69;;;2.24;78.70
60974;BME280;46846;51.528;5.076;2023-01-27T12:06:47;102214.88;;;2.33;78.63
60974;BME280;46846;51.528;5.076;2023-01-27T12:19:51;102215.88;;;2.38;77.64
60974;BME280;46846;51.528;5.076;2023-01-27T12:24:56;102207.88;;;2.32;78.58
60974;BME280;46846;51.528;5.076;2023-01-27T12:27:24;102209.50;;;2.27;78.21
60974;BME280;46846;51.528;5.076;2023-01-27T12:29:54;102200.13;;;2.38;77.94
60974;BME280;46846;51.528;5.076;2023-01-27T12:32:33;102195.69;;;2.36;78.34
60974;BME280;46846;51.528;5.076;2023-01-27T12:35:00;102199.88;;;2.27;78.96
60974;BME280;46846;51.528;5.076;2023-01-27T12:37:30;102199.69;;;2.18;79.11
60974;BME280;46846;51.528;5.076;2023-01-27T12:40:02;102203.38;;;2.28;78.56
60974;BME280;46846;51.528;5.076;2023-01-27T12:42:37;102194.50;;;2.21;78.92
60974;BME280;46846;51.528;5.076;2023-01-27T12:45:30;102190.38;;;2.32;78.56
60974;BME280;46846;51.528;5.076;2023-01-27T12:50:38;102196.22;;;2.19;79.62
60974;BME280;46846;51.528;5.076;2023-01-27T13:01:35;102184.03;;;2.23;79.51
60974;BME280;46846;51.528;5.076;2023-01-27T13:04:15;102183.31;;;2.30;78.37
60974;BME280;46846;51.528;5.076;2023-01-27T13:06:43;102179.50;;;2.17;79.45
60974;BME280;46846;51.528;5.076;2023-01-27T13:11:46;102184.84;;;2.20;79.83
60974;BME280;46846;51.528;5.076;2023-01-27T13:14:16;102184.19;;;2.30;79.05
60974;BME280;46846;51.528;5.076;2023-01-27T13:16:50;102182.28;;;2.23;79.25
60974;BME280;46846;51.528;5.076;2023-01-27T13:19:17;102178.88;;;2.27;79.20
60974;BME280;46846;51.528;5.076;2023-01-27T13:21:46;102180.53;;;2.24;79.01
60974;BME280;46846;51.528;5.076;2023-01-27T13:24:17;102188.66;;;2.35;77.83
60974;BME280;46846;51.528;5.076;2023-01-27T13:26:46;102188.13;;;2.10;79.76
60974;BME280;46846;51.528;5.076;2023-01-27T13:31:52;102188.69;;;2.36;79.14
60974;BME280;46846;51.528;5.076;2023-01-27T13:34:35;102187.94;;;2.42;78.71
60974;BME280;46846;51.528;5.076;2023-01-27T13:39:44;102192.25;;;2.38;78.27
60974;BME280;46846;51.528;5.076;2023-01-27T13:42:22;102189.56;;;2.37;78.81
60974;BME280;46846;51.528;5.076;2023-01-27T13:45:02;102192.34;;;2.43;78.71
60974;BME280;46846;51.528;5.076;2023-01-27T13:47:46;102188.81;;;2.41;78.59
60974;BME280;46846;51.528;5.076;2023-01-27T13:53:00;102190.47;;;2.39;78.28
60974;BME280;46846;51.528;5.076;2023-01-27T13:55:52;102195.88;;;2.43;78.29
60974;BME280;46846;51.528;5.076;2023-01-27T13:58:34;102197.69;;;2.48;77.10
60974;BME280;46846;51.528;5.076;2023-01-27T14:01:09;102194.09;;;2.44;77.49
60974;BME280;46846;51.528;5.076;2023-01-27T14:09:16;102200.50;;;2.55;76.41
60974;BME280;46846;51.528;5.076;2023-01-27T14:11:51;102201.41;;;2.57;76.13
60974;BME280;46846;51.528;5.076;2023-01-27T14:14:43;102203.22;;;2.62;75.63
60974;BME280;46846;51.528;5.076;2023-01-27T14:20:11;102208.88;;;2.39;77.77
60974;BME280;46846;51.528;5.076;2023-01-27T14:23:08;102212.41;;;2.39;78.10
60974;BME280;46846;51.528;5.076;2023-01-27T14:26:01;102203.94;;;2.54;75.97
60974;BME280;46846;51.528;5.076;2023-01-27T14:31:20;102201.78;;;2.35;78.41
60974;BME280;46846;51.528;5.076;2023-01-27T14:34:18;102206.38;;;2.43;78.13
60974;BME280;46846;51.528;5.076;2023-01-27T14:36:58;102205.63;;;2.51;76.73
60974;BME280;46846;51.528;5.076;2023-01-27T14:42:33;102212.78;;;2.58;77.14
60974;BME280;46846;51.528;5.076;2023-01-27T14:45:18;102209.97;;;2.49;77.97
60974;BME280;46846;51.528;5.076;2023-01-27T14:47:54;102212.44;;;2.41;78.69
60974;BME280;46846;51.528;5.076;2023-01-27T14:50:53;102213.16;;;2.34;79.25
60974;BME280;46846;51.528;5.076;2023-01-27T14:56:22;102213.31;;;2.41;78.28
60974;BME280;46846;51.528;5.076;2023-01-27T15:06:54;102216.66;;;2.32;79.05
60974;BME280;46846;51.528;5.076;2023-01-27T15:12:27;102219.59;;;2.48;78.03
60974;BME280;46846;51.528;5.076;2023-01-27T15:17:31;102230.31;;;2.57;77.64
60974;BME280;46846;51.528;5.076;2023-01-27T15:25:46;102238.25;;;2.60;77.41
60974;BME280;46846;51.528;5.076;2023-01-27T15:28:15;102235.22;;;2.42;78.25
60974;BME280;46846;51.528;5.076;2023-01-27T15:36:37;102247.03;;;2.61;76.49
60974;BME280;46846;51.528;5.076;2023-01-27T15:41:35;102242.50;;;2.54;77.82